CheckWX is a tool to help pilots better visualize weather data.  It is not intended as a substitute for an official pre-flight weather briefing.

21:04:54 UTC

EGPK METAR
Glasgow Prestwick Airport
Glasgow, United Kingdom
Current

15 mins ago

EGPK 232050Z 29007KT 9999 FEW030 11/06 Q1016
Observed
May-23 @ 20:50 UTC
Wind
  • 290° at 7 KTS
Visibility
10,000+ meters
Flight Rules
VFR
Cloud Levels
  • Few at 3,000' AGL
Temperature
11°C / 52°F
Dewpoint
C / 43°F
Humidity
72%
Altimeter
30" Hg
Pressure
1015.92 hPa
Previous

45 mins ago

EGPK 232020Z 30011KT 9999 FEW030 11/06 Q1016
Observed
May-23 @ 20:20 UTC
Wind
  • 300° at 11 KTS
Visibility
10,000+ meters
Flight Rules
VFR
Cloud Levels
  • Few at 3,000' AGL
Temperature
11°C / 52°F
Dewpoint
C / 43°F
Humidity
72%
Altimeter
30" Hg
Pressure
1015.92 hPa
Previous

2 hours ago

EGPK 231920Z 30013KT 9999 FEW030 12/06 Q1015
Observed
May-23 @ 19:20 UTC
Wind
  • 300° at 13 KTS
Visibility
10,000+ meters
Flight Rules
VFR
Cloud Levels
  • Few at 3,000' AGL
Temperature
12°C / 54°F
Dewpoint
C / 43°F
Humidity
67%
Altimeter
29.97" Hg
Pressure
1014.92 hPa